Flight Track Log - Related Links

Times and Time Zones

All times are in EDT time to prevent confusion due to time zone crossing. See the EJA941 flight status page for this flight to view local times or setup timezone preferences in your user account.

Time Position Orientation Groundspeed Altitude Reporting Facility
EDT Latitude Longitude Course Direction KTS MPH feet Rate Location/Type
Fri 10:17:55 AM 40.8333 -74.1000 265° West 183 211 1,500  Level New York TRACON
Fri 10:18:55 AM 40.8167 -74.1667 252° West 197 227 3,000 2,100 Climbing New York TRACON
Fri 10:19:55 AM 40.8167 -74.2500 270° West 241 277 5,700 2,671 Climbing New York TRACON
Fri 10:21:48 AM 40.8025 -74.4444 265° West 292 336 10,700 2,116 Climbing New York Center
Fri 10:22:48 AM 40.7783 -74.5472 253° West 314 361 11,800 1,650 Climbing New York Center
Fri 10:23:00 AM 40.7720 -75.1223 265° West  Level Estimated
Fri 10:23:48 AM 40.7511 -74.6828 255° West 338 389 14,000  Level New York Center
Fri 10:24:48 AM 40.7264 -74.7964 254° West 355 409 15,300 1,500 Climbing New York Center
Fri 10:25:48 AM 40.6944 -74.9367 253° West 362 417 17,000 1,550 Climbing New York Center
Fri 10:26:48 AM 40.6667 -75.0692 255° West 378 435 18,400 1,300 Climbing New York Center
Fri 10:27:48 AM 40.6392 -75.1906 253° West 378 435 19,600 1,150 Climbing New York Center
Fri 10:28:48 AM 40.6092 -75.3281 254° West 384 442 20,700 1,500 Climbing New York Center
Fri 10:29:48 AM 40.5783 -75.4708 254° West 396 456 22,600 2,200 Climbing New York Center
Fri 10:31:48 AM 40.5175 -75.7397 254° West 390 449 27,300 2,233 Climbing New York Center
Fri 10:32:48 AM 40.4886 -75.8767 255° West 390 449 29,300 1,950 Climbing New York Center
Fri 10:33:48 AM 40.4514 -76.0158 251° West 400 460 31,200 1,200 Climbing New York Center
Fri 10:34:48 AM 40.4172 -76.1686 254° West 417 480 31,700 700 Climbing New York Center
Fri 10:35:48 AM 40.3808 -76.3267 253° West 444 511 32,600 1,250 Climbing New York Center
Fri 10:36:48 AM 40.3397 -76.4894 252° West 459 528 34,200 1,750 Climbing New York Center
Fri 10:37:48 AM 40.2844 -76.6400 244° Southwest 464 534 36,100 1,900 Climbing New York Center
Fri 10:38:48 AM 40.2681 -76.7964 262° West 458 527 38,000 2,100 Climbing New York Center
Fri 10:39:48 AM 40.2664 -76.9514 269° West 438 504 40,300 1,850 Climbing New York Center
Fri 10:40:48 AM 40.2669 -77.0983 270° West 424 488 41,700 1,250 Climbing New York Center
Fri 10:41:48 AM 40.2647 -77.2561 269° West 417 480 42,800 396 Climbing New York Center
Fri 10:44:05 AM 40.2603 -77.6019 269° West 435 501 43,000 60 Climbing Cleveland Center
Fri 10:45:07 AM 40.2483 -77.7653 265° West 446 513 43,000  Level Cleveland Center
Fri 10:46:09 AM 40.2297 -77.9325 262° West 459 528 43,000  Level Cleveland Center
Fri 10:47:11 AM 40.2108 -78.0986 262° West 460 529 43,000  Level Cleveland Center
Fri 10:48:13 AM 40.1894 -78.2975 262° West 460 529 43,000  Level Cleveland Center
Fri 10:49:15 AM 40.1700 -78.4636 261° West 461 531 43,000  Level Cleveland Center
Fri 10:50:17 AM 40.1508 -78.6300 261° West 462 532 43,000  Level Cleveland Center
Fri 10:51:19 AM 40.1322 -78.7947 262° West 460 529 43,000  Level Cleveland Center
Fri 10:52:21 AM 40.1114 -78.9600 261° West 459 528 43,000  Level Cleveland Center
Fri 10:53:23 AM 40.0939 -79.1286 262° West 465 535 43,000  Level Cleveland Center
Fri 10:54:25 AM 40.0694 -79.3278 261° West 465 535 43,000  Level Cleveland Center
Fri 10:55:27 AM 40.0531 -79.4675 261° West 465 535 43,000  Level Cleveland Center
Fri 10:56:29 AM 40.0269 -79.6661 260° West 466 536 43,000  Level Cleveland Center
Fri 10:57:32 AM 40.0056 -79.8308 260° West 463 533 43,000  Level Cleveland Center
Fri 10:58:34 AM 39.9861 -80.0003 262° West 468 539 43,000  Level Cleveland Center
Fri 10:59:36 AM 39.9647 -80.1653 260° West 462 532 43,000  Level Cleveland Center
Fri 11:00:38 AM 39.9425 -80.3294 260° West 458 527 43,000  Level Cleveland Center
Fri 11:01:40 AM 39.9208 -80.4958 260° West 464 534 43,000  Level Cleveland Center
Fri 11:02:42 AM 39.8989 -80.6592 260° West 458 527 43,000  Level Cleveland Center
Fri 11:03:44 AM 39.8719 -80.8542 260° West 457 526 43,000  Level Cleveland Center
Fri 11:04:14 AM 39.8633 -80.9122 259° West 461 531 43,000  Level Indianapolis Center
Fri 11:05:16 AM 39.8358 -81.1086 260° West 461 531 43,000  Level Indianapolis Center
Fri 11:06:18 AM 39.8136 -81.2714 260° West 460 529 43,000  Level Indianapolis Center
Fri 11:07:20 AM 39.7903 -81.4331 259° West 457 526 43,000  Level Indianapolis Center
Fri 11:08:22 AM 39.7675 -81.5947 260° West 460 529 43,000  Level Indianapolis Center
Fri 11:09:24 AM 39.7439 -81.7589 259° West 459 528 43,000  Level Indianapolis Center
Fri 11:10:26 AM 39.7208 -81.9219 260° West 463 533 43,000  Level Indianapolis Center
Fri 11:11:28 AM 39.6922 -82.1189 259° West 461 531 43,000  Level Indianapolis Center
Fri 11:12:30 AM 39.6672 -82.2808 259° West 461 531 43,000  Level Indianapolis Center
Fri 11:13:32 AM 39.6428 -82.4433 259° West 460 529 43,000  Level Indianapolis Center
Fri 11:14:34 AM 39.6186 -82.6058 259° West 459 528 43,000  Level Indianapolis Center
Fri 11:15:36 AM 39.5939 -82.7689 259° West 460 529 43,000  Level Indianapolis Center
Fri 11:16:38 AM 39.5681 -82.9300 258° West 458 527 43,000  Level Indianapolis Center
Fri 11:17:40 AM 39.5378 -83.1242 259° West 457 526 43,000  Level Indianapolis Center
Fri 11:18:42 AM 39.5125 -83.2858 259° West 456 525 43,000  Level Indianapolis Center
Fri 11:19:44 AM 39.4869 -83.4469 258° West 453 521 43,000  Level Indianapolis Center
Fri 11:20:46 AM 39.4606 -83.6092 258° West 458 527 43,000  Level Indianapolis Center
Fri 11:21:48 AM 39.4350 -83.7697 258° West 454 522 43,000  Level Indianapolis Center
Fri 11:22:50 AM 39.4081 -83.9294 258° West 453 521 43,000  Level Indianapolis Center
Fri 11:23:52 AM 39.3822 -84.0894 258° West 454 522 43,000  Level Indianapolis Center
Fri 11:24:54 AM 39.3556 -84.2489 258° West 454 522 43,000  Level Indianapolis Center
Fri 11:25:56 AM 39.3247 -84.4406 258° West 453 521 43,000  Level Indianapolis Center
Fri 11:26:58 AM 39.2967 -84.5992 257° West 454 522 43,000  Level Indianapolis Center
Fri 11:28:00 AM 39.2694 -84.7572 258° West 452 520 43,000  Level Indianapolis Center
Fri 11:29:02 AM 39.2439 -84.8997 257° West 453 521 43,000  Level Indianapolis Center
Fri 11:30:04 AM 39.2136 -85.0867 258° West 446 513 43,000  Level Indianapolis Center
Fri 11:31:05 AM 39.1858 -85.2411 257° West 443 510 43,000  Level Indianapolis Center
Fri 11:32:07 AM 39.1583 -85.3947 257° West 442 509 43,000  Level Indianapolis Center
Fri 11:33:09 AM 39.1314 -85.5483 257° West 441 507 43,000  Level Indianapolis Center
Fri 11:34:11 AM 39.1028 -85.7044 257° West 445 512 43,000  Level Indianapolis Center
Fri 11:35:13 AM 39.0742 -85.8586 257° West 443 510 43,000  Level Indianapolis Center
Fri 11:36:15 AM 39.0400 -86.0453 257° West 446 513 43,000  Level Indianapolis Center
Fri 11:37:17 AM 39.0114 -86.1997 257° West 445 512 43,000  Level Indianapolis Center
Fri 11:38:19 AM 38.9825 -86.3533 256° West 443 510 43,000  Level Indianapolis Center
Fri 11:39:21 AM 38.9536 -86.5075 256° West 443 510 43,000 -726 Level Indianapolis Center
Fri 11:40:23 AM 38.9231 -86.6733 257° West 443 510 41,500 -1,790 Descending Indianapolis Center
Fri 11:41:25 AM 38.8711 -86.8133 245° Southwest 442 509 39,300 -2,129 Descending Indianapolis Center
Fri 11:42:27 AM 38.8069 -86.9567 240° Southwest 461 531 37,100 -2,129 Descending Indianapolis Center
Fri 11:43:29 AM 38.7372 -87.1028 239° Southwest 479 551 34,900 -1,500 Descending Indianapolis Center
Fri 11:44:31 AM 38.6586 -87.2781 240° Southwest 477 549 34,000 -435 Descending Indianapolis Center
Fri 11:45:33 AM 38.6183 -87.4378 252° West 476 548 34,000 -194 Level Indianapolis Center
Fri 11:46:35 AM 38.5619 -87.5911 245° Southwest 477 549 33,600 -823 Descending Indianapolis Center
Fri 11:47:37 AM 38.5086 -87.7425 246° West 471 542 32,300 -1,790 Descending Indianapolis Center
Fri 11:48:39 AM 38.4778 -87.9064 257° West 477 549 29,900 -2,226 Descending Indianapolis Center
Fri 11:49:41 AM 38.4717 -88.0778 267° West 482 555 27,700 -2,177 Descending Indianapolis Center
Fri 11:50:43 AM 38.4628 -88.2775 267° West 469 540 25,400 -2,032 Descending Indianapolis Center
Fri 11:51:45 AM 38.4550 -88.4383 267° West 458 527 23,500 -2,129 Descending Indianapolis Center
Fri 11:52:47 AM 38.4478 -88.5933 267° West 442 509 21,000 -2,806 Descending Indianapolis Center
Fri 11:53:49 AM 38.4414 -88.7431 267° West 424 488 17,700 -3,264 Descending Indianapolis Center
Fri 11:54:52 AM 38.4322 -88.8908 266° West 419 482 14,200 -3,168 Descending Indianapolis Center
Fri 11:55:54 AM 38.4253 -89.0294 266° West 402 463 11,100 -1,790 Descending Indianapolis Center
Fri 11:56:56 AM 38.4219 -89.1417 268° West 345 397 10,500 -1,500 Descending Indianapolis Center
Fri 11:57:58 AM 38.4331 -89.2581 277° West 295 339 8,000 -1,694 Descending Indianapolis Center
Fri 11:59:00 AM 38.4500 -89.3569 282° West 285 328 7,000 -420 Descending Indianapolis Center
Fri 12:00:21 PM 38.4694 -89.4847 281° West 268 308 7,000 41 Level Kansas City Center
Fri 12:01:25 PM 38.4836 -89.5767 281° West 265 305 7,100 48 Climbing Kansas City Center
Fri 12:02:25 PM 38.4981 -89.6722 281° West 272 313 7,100 -48 Level Kansas City Center
Fri 12:03:29 PM 38.5128 -89.7697 281° West 275 316 7,000 -912 Descending Kansas City Center
Fri 12:04:30 PM 38.5272 -89.8675 281° West 266 306 5,200 -1,065 Descending Kansas City Center
Fri 12:05:33 PM 38.5406 -89.9519 281° West 253 291 4,800 -823 Descending Kansas City Center
Fri 12:06:34 PM 38.5650 -90.0197 295° West 238 274 3,500 -1,131 Descending Kansas City Center
Fri 12:07:35 PM 38.5519 -90.0942 257° West 225 259 2,500 -823 Descending Kansas City Center
Fri 12:08:38 PM 38.5447 -90.1583 262° West 216 249 1,800 -532 Descending Kansas City Center
Fri 12:09:39 PM 38.5669 -90.2044 302° West 180 207 1,400 -581 Descending Kansas City Center
Fri 12:10:42 PM 38.5769 -90.1700 70° East 168 193 600 -762 Descending Kansas City Center

Login

Don't have an account? Register now (free) for customized features, flight alerts, and more!